Time;durP1;ratioP1;P1;durP2;ratioP2;P2;SDS_P1;SDS_P2;PMS_P1;PMS_P2;Temp;Humidity;BMP_temperature;BMP_pressure;BME280_temperature;BME280_humidity;BME280_pressure;Samples;Min_cycle;Max_cycle;Signal;HPM_P1;HPM_P2
2023/12/21 00:00:31;;;;;;;12.25;2.30;;;;;;;13.28;73.39;100801.84;5012304;28;20072;-45
2023/12/21 00:02:57;;;;;;;12.75;2.47;;;;;;;13.43;72.71;100798.34;5012552;28;20065;-45
2023/12/21 00:05:22;;;;;;;17.58;2.50;;;;;;;13.82;71.33;100787.88;5013785;28;20036;-46
2023/12/21 00:07:47;;;;;;;10.05;1.90;;;;;;;13.42;72.27;100782.66;5013404;28;20555;-45
2023/12/21 00:10:13;;;;;;;12.35;2.22;;;;;;;13.42;72.26;100777.44;5012815;28;20042;-43
2023/12/21 00:12:38;;;;;;;9.40;1.77;;;;;;;13.24;73.38;100768.66;5013239;28;20049;-44
2023/12/21 00:15:04;;;;;;;13.13;2.25;;;;;;;13.41;72.38;100771.31;5013019;28;20049;-46
2023/12/21 00:17:30;;;;;;;14.50;2.35;;;;;;;13.23;73.09;100772.19;5014252;28;20091;-48
2023/12/21 00:19:55;;;;;;;11.20;2.15;;;;;;;13.52;72.62;100779.16;5015025;28;20125;-44
2023/12/21 00:22:20;;;;;;;11.85;2.25;;;;;;;13.72;71.57;100765.16;5017380;28;20034;-44
2023/12/21 00:24:46;;;;;;;13.68;2.15;;;;;;;13.64;71.80;100766.94;5015271;28;20045;-45
2023/12/21 00:27:11;;;;;;;13.15;2.58;;;;;;;13.51;72.42;100751.22;5013344;28;20041;-47
2023/12/21 00:29:36;;;;;;;16.20;2.10;;;;;;;13.89;71.42;100741.56;5014356;28;20030;-47
2023/12/21 00:32:02;;;;;;;11.75;2.13;;;;;;;13.40;73.02;100735.53;5013199;28;20129;-44
2023/12/21 00:34:27;;;;;;;14.38;2.15;;;;;;;13.65;72.16;100732.00;5015708;28;20037;-48
2023/12/21 00:36:53;;;;;;;15.75;2.35;;;;;;;13.44;72.43;100733.75;5013560;28;20057;-50
2023/12/21 00:39:18;;;;;;;11.35;2.40;;;;;;;13.40;72.91;100711.94;5012872;28;20048;-47
2023/12/21 00:41:43;;;;;;;13.55;2.28;;;;;;;13.46;72.26;100727.66;5012320;28;20034;-45
2023/12/21 00:44:09;;;;;;;12.13;2.20;;;;;;;13.49;72.95;100719.78;5012049;28;20507;-49
2023/12/21 00:46:34;;;;;;;21.17;2.30;;;;;;;13.55;72.22;100708.41;5012317;28;20132;-44
2023/12/21 00:48:59;;;;;;;14.68;2.33;;;;;;;13.68;72.33;100699.66;5011882;28;20145;-45
2023/12/21 00:51:24;;;;;;;12.95;2.08;;;;;;;13.21;73.80;100713.69;5012189;28;20040;-45
2023/12/21 00:53:50;;;;;;;14.50;2.22;;;;;;;13.34;73.54;100697.13;5011108;28;20036;-44
2023/12/21 00:56:15;;;;;;;12.52;2.20;;;;;;;13.54;73.18;100688.38;5011671;28;20045;-47
2023/12/21 00:58:40;;;;;;;15.55;2.20;;;;;;;13.29;73.19;100674.44;5012057;28;20030;-45
2023/12/21 01:01:06;;;;;;;16.35;2.65;;;;;;;13.31;73.39;100677.91;5011620;28;20052;-46
2023/12/21 01:03:31;;;;;;;9.75;1.90;;;;;;;13.42;72.98;100688.38;5012082;28;20032;-44
2023/12/21 01:05:56;;;;;;;13.10;2.20;;;;;;;13.82;71.25;100683.06;5011460;28;20042;-47
2023/12/21 01:08:22;;;;;;;9.50;2.22;;;;;;;13.22;73.30;100680.53;5011921;28;20037;-48
2023/12/21 01:10:47;;;;;;;13.48;2.03;;;;;;;13.60;72.54;100670.03;5013021;28;20057;-45
2023/12/21 01:13:13;;;;;;;14.70;2.15;;;;;;;13.46;72.70;100663.94;5011363;28;20057;-46
2023/12/21 01:15:38;;;;;;;11.63;1.98;;;;;;;13.42;73.23;100668.28;5010341;28;20113;-49
2023/12/21 01:18:03;;;;;;;12.88;1.98;;;;;;;13.12;73.93;100656.09;5011485;28;20436;-43
2023/12/21 01:20:29;;;;;;;13.20;1.90;;;;;;;13.64;72.45;100646.44;5011867;28;20037;-44
2023/12/21 01:22:54;;;;;;;15.80;2.95;;;;;;;13.14;73.89;100643.91;5011121;28;20042;-49
2023/12/21 01:25:19;;;;;;;15.00;2.13;;;;;;;13.26;73.62;100662.22;5011592;28;20129;-47
2023/12/21 01:27:45;;;;;;;14.20;2.47;;;;;;;13.37;74.02;100649.09;5011883;28;20080;-46
2023/12/21 01:30:10;;;;;;;16.02;2.28;;;;;;;13.42;72.62;100647.34;5011621;28;20030;-44
2023/12/21 01:32:36;;;;;;;11.20;2.33;;;;;;;13.24;74.74;100626.41;5011920;28;20025;-45
2023/12/21 01:35:01;;;;;;;11.73;2.22;;;;;;;13.42;73.52;100629.00;5011480;28;20034;-48
2023/12/21 01:37:26;;;;;;;13.27;2.20;;;;;;;13.65;72.06;100642.06;5010916;28;20066;-47
2023/12/21 01:39:52;;;;;;;11.32;2.03;;;;;;;13.67;71.92;100642.91;5011556;28;20034;-46
2023/12/21 01:42:17;;;;;;;17.55;2.42;;;;;;;13.38;73.20;100646.47;5010703;28;20026;-48
2023/12/21 01:44:42;;;;;;;13.15;2.53;;;;;;;14.06;70.58;100634.03;5011260;28;20033;-47
2023/12/21 01:47:09;;;;;;;14.70;2.28;;;;;;;14.03;71.04;100627.06;5010431;28;20038;-49
2023/12/21 01:49:34;;;;;;;15.45;2.50;;;;;;;13.39;72.92;100634.25;5011718;28;20412;-49
2023/12/21 01:52:00;;;;;;;10.05;2.20;;;;;;;13.18;74.00;100623.81;5010534;28;20034;-49
2023/12/21 01:54:26;;;;;;;11.70;2.25;;;;;;;13.42;73.23;100608.06;5011319;28;20037;-50
2023/12/21 01:56:51;;;;;;;14.55;2.70;;;;;;;13.30;73.57;100615.94;5011011;28;20038;-46
2023/12/21 01:59:17;;;;;;;11.95;2.50;;;;;;;13.17;73.94;100574.97;5010826;28;20080;-47
2023/12/21 02:01:42;;;;;;;13.23;2.30;;;;;;;13.42;73.03;100604.59;5011160;28;20033;-47
2023/12/21 02:04:08;;;;;;;15.70;2.15;;;;;;;13.59;73.11;100608.91;5010683;28;20044;-45
2023/12/21 02:06:33;;;;;;;15.45;2.85;;;;;;;13.54;72.97;100608.03;5011044;28;20037;-47
2023/12/21 02:08:59;;;;;;;13.15;2.33;;;;;;;13.32;74.16;100612.47;5010741;28;20081;-45
2023/12/21 02:11:24;;;;;;;13.40;2.67;;;;;;;13.60;72.39;100594.91;5011160;28;20520;-47
2023/12/21 02:13:49;;;;;;;16.30;2.70;;;;;;;13.50;72.95;100584.47;5011051;28;20041;-45
2023/12/21 02:16:23;;;;;;;19.50;2.40;;;;;;;13.29;74.59;100583.69;5010307;28;20133;-45
2023/12/21 02:18:49;;;;;;;16.27;2.45;;;;;;;13.77;72.54;100581.75;5010817;28;20128;-46
2023/12/21 02:21:15;;;;;;;11.77;2.33;;;;;;;13.55;73.15;100580.09;5010332;28;20037;-49
2023/12/21 02:23:42;;;;;;;16.92;2.38;;;;;;;13.38;73.51;100567.94;5010944;28;20037;-50
2023/12/21 02:26:08;;;;;;;13.05;2.20;;;;;;;13.72;73.10;100557.34;5009868;28;20469;-43
2023/12/21 02:28:34;;;;;;;19.65;2.95;;;;;;;13.78;72.56;100559.94;5010603;28;20045;-43
2023/12/21 02:30:59;;;;;;;16.17;2.78;;;;;;;13.38;73.42;100560.06;5010266;28;20038;-48
2023/12/21 02:33:25;;;;;;;16.48;2.30;;;;;;;13.66;72.77;100532.00;5010031;28;20033;-46
2023/12/21 02:35:50;;;;;;;14.63;2.55;;;;;;;13.12;74.64;100550.50;5010467;28;20034;-47
2023/12/21 02:38:15;;;;;;;12.50;2.50;;;;;;;13.29;74.35;100554.88;5010057;28;20065;-47
2023/12/21 02:40:40;;;;;;;15.35;2.65;;;;;;;13.52;73.80;100554.78;5010734;28;20030;-46
2023/12/21 02:43:06;;;;;;;15.10;2.63;;;;;;;13.10;74.21;100552.28;5010092;28;20034;-47
2023/12/21 02:45:31;;;;;;;14.73;2.50;;;;;;;13.58;73.22;100548.66;5011025;28;20034;-48
2023/12/21 02:47:57;;;;;;;11.68;2.47;;;;;;;13.40;73.39;100542.63;5010536;28;20042;-45
2023/12/21 02:50:22;;;;;;;15.93;2.28;;;;;;;13.85;72.51;100537.16;5011332;28;20385;-46
2023/12/21 02:52:47;;;;;;;17.30;2.40;;;;;;;13.71;72.96;100517.19;5012710;28;20044;-46
2023/12/21 02:55:13;;;;;;;21.13;2.92;;;;;;;13.48;73.76;100505.91;5012910;28;20084;-49
2023/12/21 02:57:38;;;;;;;14.65;2.30;;;;;;;13.44;73.69;100488.47;5012063;28;20125;-46
2023/12/21 03:00:04;;;;;;;14.02;2.40;;;;;;;13.62;73.30;100477.91;5011293;28;20067;-44
2023/12/21 03:02:30;;;;;;;12.85;2.42;;;;;;;13.40;73.75;100479.78;5010858;28;20084;-44
2023/12/21 03:04:55;;;;;;;13.45;2.30;;;;;;;13.51;74.04;100482.34;5010086;28;20388;-44
2023/12/21 03:07:20;;;;;;;11.77;2.53;;;;;;;13.26;74.72;100452.78;5012414;28;20034;-48
2023/12/21 03:09:45;;;;;;;16.15;2.60;;;;;;;13.33;74.57;100459.72;5013696;28;20508;-46
2023/12/21 03:12:11;;;;;;;14.60;2.40;;;;;;;13.45;74.36;100447.44;5012170;28;20129;-45
2023/12/21 03:14:36;;;;;;;12.65;1.85;;;;;;;13.63;73.35;100442.13;5010950;28;20113;-45
2023/12/21 03:17:01;;;;;;;16.92;2.45;;;;;;;13.45;73.99;100430.00;5009945;28;20471;-45
2023/12/21 03:19:27;;;;;;;16.55;2.60;;;;;;;13.37;73.98;100419.56;5010670;28;20068;-51
2023/12/21 03:21:52;;;;;;;14.70;2.15;;;;;;;13.31;74.49;100424.81;5010485;28;20078;-47
2023/12/21 03:24:17;;;;;;;14.13;2.50;;;;;;;13.41;74.66;100423.03;5010274;28;20444;-46
2023/12/21 03:26:45;;;;;;;14.90;2.20;;;;;;;13.54;73.96;100439.56;5010417;28;20088;-45
2023/12/21 03:29:11;;;;;;;14.73;2.50;;;;;;;13.69;73.30;100423.75;5010574;28;20034;-47
2023/12/21 03:31:36;;;;;;;14.82;2.33;;;;;;;13.53;74.45;100436.06;5010768;28;20045;-45
2023/12/21 03:34:01;;;;;;;17.95;2.30;;;;;;;13.54;74.34;100416.84;5010156;28;20067;-46
2023/12/21 03:36:27;;;;;;;18.45;2.20;;;;;;;13.28;74.24;100416.13;5011343;28;20408;-47
2023/12/21 03:38:52;;;;;;;15.73;2.08;;;;;;;13.57;74.35;100410.72;5010378;28;20038;-46
2023/12/21 03:41:18;;;;;;;16.27;2.78;;;;;;;13.37;74.57;100395.13;5009556;28;20062;-50
2023/12/21 03:43:43;;;;;;;15.57;2.05;;;;;;;13.71;73.82;100390.56;5009901;28;20041;-45
2023/12/21 03:46:09;;;;;;;13.20;1.85;;;;;;;13.53;74.02;100396.78;5009173;28;20638;-48
2023/12/21 03:48:34;;;;;;;13.63;2.25;;;;;;;13.66;73.50;100377.47;5009549;28;20159;-47
2023/12/21 03:51:00;;;;;;;15.27;2.45;;;;;;;13.26;75.25;100404.78;5009362;28;20129;-47
2023/12/21 03:53:25;;;;;;;11.30;1.92;;;;;;;13.67;73.72;100383.56;5009574;28;20030;-46
2023/12/21 03:55:50;;;;;;;13.88;2.33;;;;;;;13.51;74.34;100385.44;5009644;28;20066;-49
2023/12/21 03:58:15;;;;;;;13.18;2.08;;;;;;;13.60;74.20;100374.03;5008966;28;20120;-46
2023/12/21 04:00:41;;;;;;;11.75;2.03;;;;;;;13.47;74.73;100368.03;5010033;28;20506;-46
2023/12/21 04:03:06;;;;;;;15.00;1.88;;;;;;;13.43;74.72;100370.66;5011182;28;20038;-46
2023/12/21 04:05:31;;;;;;;16.02;2.33;;;;;;;13.01;76.02;100370.84;5012968;28;20034;-46
2023/12/21 04:07:57;;;;;;;12.13;1.95;;;;;;;13.61;74.42;100342.59;5012563;28;20038;-51
2023/12/21 04:10:22;;;;;;;9.50;1.75;;;;;;;13.45;74.93;100343.59;5013338;28;20033;-45
2023/12/21 04:12:47;;;;;;;10.75;1.77;;;;;;;13.42;74.24;100346.19;5012700;28;20409;-48
2023/12/21 04:15:13;;;;;;;13.20;2.30;;;;;;;13.51;74.64;100332.19;5012552;28;20037;-48
2023/12/21 04:17:38;;;;;;;13.60;2.83;;;;;;;13.43;74.81;100298.19;5013047;28;20073;-44
2023/12/21 04:20:05;;;;;;;12.57;1.77;;;;;;;13.87;73.31;100294.34;5012516;28;20041;-47
2023/12/21 04:22:30;;;;;;;18.40;2.03;;;;;;;13.39;74.69;100289.50;5012654;28;20048;-47
2023/12/21 04:24:55;;;;;;;12.00;2.10;;;;;;;13.67;73.83;100281.41;5012436;28;20042;-47
2023/12/21 04:27:21;;;;;;;14.93;2.15;;;;;;;13.14;76.16;100279.22;5012686;28;20045;-44
2023/12/21 04:29:46;;;;;;;16.85;2.13;;;;;;;13.40;74.67;100269.44;5012754;28;20053;-46
2023/12/21 04:32:11;;;;;;;15.88;2.03;;;;;;;13.25;76.12;100282.63;5011770;28;20084;-45
2023/12/21 04:34:37;;;;;;;15.13;2.08;;;;;;;13.41;74.84;100289.50;5012378;28;20072;-49
2023/12/21 04:37:02;;;;;;;11.68;1.80;;;;;;;12.91;76.91;100285.44;5011846;28;20054;-46
2023/12/21 04:39:27;;;;;;;13.65;2.15;;;;;;;13.34;74.77;100272.09;5012599;28;20030;-45
2023/12/21 04:41:53;;;;;;;12.93;2.28;;;;;;;13.30;75.44;100275.59;5011939;28;20040;-45
2023/12/21 04:44:18;;;;;;;11.07;1.80;;;;;;;13.31;75.69;100272.09;5012402;28;20120;-46
2023/12/21 04:46:47;;;;;;;10.80;1.92;;;;;;;13.24;75.63;100273.91;5012180;28;20038;-45
2023/12/21 04:49:13;;;;;;;10.25;1.80;;;;;;;12.99;76.60;100280.16;5012006;28;20481;-47
2023/12/21 04:51:39;;;;;;;12.70;2.15;;;;;;;12.96;76.49;100280.16;5012008;28;20125;-46
2023/12/21 04:54:04;;;;;;;7.45;1.73;;;;;;;13.55;75.23;100256.19;5011800;28;20042;-46
2023/12/21 04:56:29;;;;;;;12.90;1.90;;;;;;;13.45;75.14;100248.44;5010850;28;20068;-45
2023/12/21 04:58:54;;;;;;;15.88;2.13;;;;;;;13.14;75.76;100258.28;5012529;28;20049;-45
2023/12/21 05:01:20;;;;;;;13.77;2.13;;;;;;;13.23;75.59;100250.38;5012589;28;20404;-43
2023/12/21 05:03:45;;;;;;;13.52;1.95;;;;;;;13.67;73.26;100244.75;5012666;28;20038;-49
2023/12/21 05:06:11;;;;;;;14.68;2.08;;;;;;;13.55;73.93;100234.38;5012272;28;20057;-44
2023/12/21 05:08:36;;;;;;;10.30;1.52;;;;;;;13.50;74.14;100212.59;5012543;28;20456;-44
2023/12/21 05:11:02;;;;;;;15.27;1.92;;;;;;;13.24;75.77;100212.81;5011934;28;20042;-48
2023/12/21 05:13:27;;;;;;;11.70;2.60;;;;;;;13.25;75.99;100202.34;5011885;28;20117;-44
2023/12/21 05:15:52;;;;;;;11.88;2.03;;;;;;;13.16;76.13;100206.81;5012773;28;20114;-45
2023/12/21 05:18:18;;;;;;;9.77;1.73;;;;;;;13.33;77.01;100213.63;5012789;28;20038;-48
2023/12/21 05:20:43;;;;;;;11.70;2.20;;;;;;;13.12;77.35;100236.44;5012168;28;20060;-45
2023/12/21 05:23:08;;;;;;;9.90;2.15;;;;;;;13.32;77.89;100238.06;5011532;28;20551;-46
2023/12/21 05:25:34;;;;;;;12.73;1.88;;;;;;;13.07;79.95;100230.38;5011986;28;20042;-47
2023/12/21 05:27:59;;;;;;;12.88;2.50;;;;;;;13.12;80.10;100224.25;5011147;28;20049;-48
2023/12/21 05:30:24;;;;;;;12.02;2.17;;;;;;;13.05;79.35;100229.53;5011883;28;20029;-47
2023/12/21 05:32:50;;;;;;;14.25;2.47;;;;;;;13.27;79.48;100236.38;5011624;28;20075;-44
2023/12/21 05:35:16;;;;;;;16.67;2.33;;;;;;;13.22;78.87;100233.78;5011345;28;20030;-47
2023/12/21 05:37:41;;;;;;;11.45;2.00;;;;;;;13.46;78.70;100208.28;5011747;28;20059;-49
2023/12/21 05:40:07;;;;;;;12.50;2.10;;;;;;;13.22;78.32;100196.28;5011047;28;20109;-45
2023/12/21 05:42:32;;;;;;;12.10;2.28;;;;;;;13.08;79.34;100191.13;5011443;28;20485;-49
2023/12/21 05:44:58;;;;;;;14.60;1.92;;;;;;;13.42;77.71;100178.63;5011076;28;20041;-48
2023/12/21 05:47:24;;;;;;;15.30;2.25;;;;;;;13.25;77.90;100178.78;5011229;28;20040;-49
2023/12/21 05:49:49;;;;;;;9.85;2.08;;;;;;;13.20;77.25;100180.59;5011617;28;20030;-49
2023/12/21 05:52:15;;;;;;;13.80;3.03;;;;;;;13.32;76.29;100182.22;5010728;28;20030;-50
2023/12/21 05:54:40;;;;;;;16.30;2.15;;;;;;;13.63;75.38;100180.19;5010274;28;20122;-45
2023/12/21 05:57:06;;;;;;;11.77;2.08;;;;;;;13.47;75.17;100194.31;5010545;28;20408;-46
2023/12/21 05:59:31;;;;;;;9.40;2.08;;;;;;;13.50;74.58;100183.81;5011710;28;20477;-46
2023/12/21 06:01:56;;;;;;;17.55;2.67;;;;;;;13.45;74.76;100183.84;5009799;28;20044;-50
2023/12/21 06:04:22;;;;;;;13.98;2.50;;;;;;;13.59;73.97;100163.66;5010334;28;20500;-52
2023/12/21 06:06:48;;;;;;;17.42;2.85;;;;;;;13.45;74.54;100151.56;5009952;28;20079;-45
2023/12/21 06:09:13;;;;;;;13.18;2.25;;;;;;;13.44;74.88;100134.97;5011254;28;20117;-49
2023/12/21 06:11:39;;;;;;;18.40;2.33;;;;;;;13.54;74.64;100123.53;5010893;28;20558;-47
2023/12/21 06:14:04;;;;;;;17.52;2.50;;;;;;;14.06;72.82;100126.41;5009598;28;20044;-48
2023/12/21 06:16:30;;;;;;;14.88;2.28;;;;;;;13.56;74.73;100120.88;5011472;28;20552;-45
2023/12/21 06:18:55;;;;;;;12.00;2.30;;;;;;;13.57;74.16;100097.31;5010678;28;20117;-44
2023/12/21 06:21:22;;;;;;;9.88;1.92;;;;;;;13.86;73.51;100098.72;5009893;28;20030;-50
2023/12/21 06:23:47;;;;;;;11.30;1.90;;;;;;;13.71;73.46;100092.78;5010794;28;20118;-45
2023/12/21 06:26:12;;;;;;;9.23;1.60;;;;;;;13.69;73.78;100084.06;5010605;28;20468;-47
2023/12/21 06:28:38;;;;;;;13.60;2.17;;;;;;;13.73;73.66;100103.22;5011500;28;20034;-48
2023/12/21 06:31:04;;;;;;;13.57;2.55;;;;;;;13.62;73.23;100094.63;5010745;28;20026;-47
2023/12/21 06:33:29;;;;;;;11.43;2.10;;;;;;;13.38;73.85;100077.44;5012240;28;20041;-49
2023/12/21 06:35:55;;;;;;;13.32;1.80;;;;;;;13.74;73.15;100081.38;5011845;28;20040;-45
2023/12/21 06:38:20;;;;;;;12.40;1.73;;;;;;;13.92;71.77;100096.88;5013481;28;20113;-44
2023/12/21 06:40:46;;;;;;;10.13;2.05;;;;;;;14.09;70.51;100079.19;5013002;28;20057;-45
2023/12/21 06:43:12;;;;;;;7.53;1.63;;;;;;;13.75;71.90;100076.16;5011686;28;20038;-44
2023/12/21 06:45:37;;;;;;;6.68;1.52;;;;;;;13.91;71.10;100075.94;5010399;28;20041;-49
2023/12/21 06:48:03;;;;;;;13.73;1.92;;;;;;;13.81;71.06;100089.16;5010126;28;20530;-45
2023/12/21 06:50:28;;;;;;;6.53;1.55;;;;;;;14.06;70.88;100073.13;5009132;28;20038;-48
2023/12/21 06:52:53;;;;;;;10.43;1.60;;;;;;;13.78;70.96;100052.50;5009562;28;20084;-46
2023/12/21 06:55:19;;;;;;;12.00;1.88;;;;;;;13.97;70.30;100033.94;5009952;28;20044;-46
2023/12/21 06:57:44;;;;;;;12.90;2.13;;;;;;;13.73;71.84;100036.00;5010023;28;20034;-48
2023/12/21 07:00:10;;;;;;;7.68;1.63;;;;;;;13.55;72.13;100040.59;5008497;28;20109;-46
2023/12/21 07:02:35;;;;;;;10.80;1.83;;;;;;;13.84;71.93;100035.00;5009885;28;20025;-46
2023/12/21 07:05:01;;;;;;;12.57;2.63;;;;;;;13.74;72.86;100024.63;5008223;28;20073;-46
2023/12/21 07:07:26;;;;;;;11.05;1.98;;;;;;;13.43;74.32;100032.88;5008541;28;20036;-51
2023/12/21 07:09:52;;;;;;;11.90;1.90;;;;;;;13.49;74.66;100035.41;5010893;28;20034;-46
2023/12/21 07:12:17;;;;;;;16.77;2.10;;;;;;;13.51;75.47;100010.09;5009320;28;20522;-46
2023/12/21 07:14:42;;;;;;;9.70;2.17;;;;;;;13.34;75.98;100005.06;4992502;28;20061;-45
2023/12/21 07:17:08;;;;;;;11.98;2.10;;;;;;;13.30;75.51;99992.88;5009577;28;20351;-45
2023/12/21 07:19:34;;;;;;;15.10;2.22;;;;;;;13.38;76.22;99996.28;5008726;28;20122;-46
2023/12/21 07:21:59;;;;;;;14.13;2.15;;;;;;;13.44;76.00;99995.34;5009134;28;20034;-46
2023/12/21 07:24:24;;;;;;;11.63;2.40;;;;;;;13.00;78.28;99999.28;5009885;28;20053;-45
2023/12/21 07:26:50;;;;;;;13.10;2.10;;;;;;;13.21;78.08;99993.00;5009810;28;20040;-45
2023/12/21 07:29:16;;;;;;;12.38;2.08;;;;;;;13.04;78.94;99990.53;5009609;28;20037;-45
2023/12/21 07:31:41;;;;;;;10.40;2.20;;;;;;;13.12;78.47;99977.34;5008436;28;20030;-46
2023/12/21 07:34:06;;;;;;;10.02;1.90;;;;;;;13.46;76.88;99983.97;5008539;28;20128;-44
2023/12/21 07:36:32;;;;;;;13.95;2.42;;;;;;;13.05;78.99;99975.72;5011520;28;20069;-47
2023/12/21 07:38:57;;;;;;;10.65;1.90;;;;;;;13.66;77.19;99979.31;5013447;28;20130;-47
2023/12/21 07:41:22;;;;;;;8.82;1.70;;;;;;;13.25;77.58;99992.94;5013650;28;20057;-46
2023/12/21 07:43:48;;;;;;;13.00;2.15;;;;;;;13.50;76.41;99983.03;5013414;28;20062;-45
2023/12/21 07:46:14;;;;;;;13.77;2.20;;;;;;;13.29;76.70;99962.38;5012739;28;20113;-44
2023/12/21 07:48:39;;;;;;;10.13;2.00;;;;;;;13.61;75.40;99967.19;5013572;28;20033;-47
2023/12/21 07:51:06;;;;;;;14.60;1.90;;;;;;;13.29;75.58;99986.81;5012745;28;20045;-45
2023/12/21 07:53:31;;;;;;;9.57;1.67;;;;;;;13.72;74.37;99960.06;5013635;28;20038;-46
2023/12/21 07:55:56;;;;;;;9.55;1.80;;;;;;;13.55;75.09;99973.38;5012973;28;20048;-46
2023/12/21 07:58:22;;;;;;;11.50;2.40;;;;;;;13.70;73.99;99975.78;5013563;28;20601;-46
2023/12/21 08:00:48;;;;;;;10.90;1.92;;;;;;;13.96;72.90;99958.84;5013543;28;20044;-48
2023/12/21 08:03:13;;;;;;;11.05;1.80;;;;;;;13.50;74.55;99949.00;5012602;28;20038;-49
2023/12/21 08:05:39;;;;;;;9.23;1.60;;;;;;;13.69;73.70;99931.28;5011838;28;20679;-44
2023/12/21 08:08:04;;;;;;;13.25;1.75;;;;;;;13.72;73.56;99939.94;5013576;28;20042;-45
2023/12/21 08:10:30;;;;;;;8.82;1.77;;;;;;;13.40;74.02;99953.50;5015138;28;20396;-44
2023/12/21 08:12:55;;;;;;;13.02;2.30;;;;;;;13.71;73.19;99938.25;5013372;28;20034;-52
2023/12/21 08:15:21;;;;;;;14.57;2.40;;;;;;;13.73;73.15;99943.44;5014644;28;20053;-46
2023/12/21 08:17:51;;;;;;;10.52;1.83;;;;;;;13.89;73.34;99939.72;5013806;28;20029;-47
2023/12/21 08:20:16;;;;;;;14.02;2.00;;;;;;;13.98;72.16;99952.69;5015089;28;20040;-46
2023/12/21 08:22:43;;;;;;;13.48;2.20;;;;;;;13.93;72.29;99949.25;5015120;28;20026;-50
2023/12/21 08:25:09;;;;;;;14.10;2.10;;;;;;;13.81;73.19;99946.81;5015086;28;20412;-44
2023/12/21 08:27:34;;;;;;;14.32;2.10;;;;;;;13.89;72.58;99963.31;5014405;28;20037;-47
2023/12/21 08:29:59;;;;;;;17.88;2.13;;;;;;;13.53;72.77;99942.88;5013257;28;20084;-45
2023/12/21 08:32:25;;;;;;;13.35;1.90;;;;;;;14.11;72.53;99941.13;5013140;28;20095;-48
2023/12/21 08:34:51;;;;;;;12.48;1.98;;;;;;;14.09;72.07;99955.13;5013018;28;20041;-47
2023/12/21 08:37:17;;;;;;;18.27;2.17;;;;;;;13.69;73.88;99945.25;5012304;28;20542;-51
2023/12/21 08:39:42;;;;;;;8.82;1.83;;;;;;;14.13;72.39;99948.97;5011661;28;20030;-47
2023/12/21 08:42:10;;;;;;;15.80;2.20;;;;;;;13.81;73.56;99938.97;5011682;28;20042;-44
2023/12/21 08:44:36;;;;;;;12.02;2.05;;;;;;;14.10;73.21;99942.00;5012479;28;20109;-47
2023/12/21 08:47:02;;;;;;;11.85;2.10;;;;;;;14.23;71.71;99959.28;5011559;28;20100;-46
2023/12/21 08:49:27;;;;;;;11.35;1.70;;;;;;;13.88;73.27;99937.13;5012636;28;20030;-45
2023/12/21 08:51:53;;;;;;;16.08;2.35;;;;;;;13.75;74.65;99939.06;5012379;28;20033;-48
2023/12/21 08:54:19;;;;;;;14.32;2.00;;;;;;;14.08;73.58;99935.06;5012002;28;20117;-52
2023/12/21 08:56:44;;;;;;;15.52;2.20;;;;;;;13.70;75.10;99933.03;5012466;28;20042;-44
2023/12/21 08:59:10;;;;;;;15.40;2.20;;;;;;;13.58;75.13;99902.63;5012175;28;20117;-45
2023/12/21 09:01:35;;;;;;;15.88;1.83;;;;;;;13.84;74.78;99930.22;5012285;28;20044;-50
2023/12/21 09:04:02;;;;;;;13.07;1.88;;;;;;;13.82;75.49;99972.13;5011933;28;20084;-48
2023/12/21 09:06:27;;;;;;;11.52;2.13;;;;;;;13.64;76.76;99938.34;5012225;28;20050;-47
2023/12/21 09:08:53;;;;;;;13.73;1.80;;;;;;;13.51;79.22;99924.56;5012088;28;20037;-46
2023/12/21 09:11:18;;;;;;;11.35;1.83;;;;;;;13.59;79.66;99919.22;5009902;28;20463;-47
2023/12/21 09:13:44;;;;;;;12.13;1.40;;;;;;;13.95;77.75;99939.63;5012430;28;20034;-48
2023/12/21 09:16:09;;;;;;;13.75;2.00;;;;;;;13.93;78.99;99932.66;5012269;28;20081;-45
2023/12/21 09:18:34;;;;;;;10.57;1.60;;;;;;;13.67;79.17;99931.28;5012492;28;20046;-46
2023/12/21 09:21:01;;;;;;;11.40;1.83;;;;;;;13.75;79.73;99939.06;5012743;28;20038;-45
2023/12/21 09:23:26;;;;;;;14.82;1.90;;;;;;;13.73;79.63;99917.25;5012958;28;20071;-45
2023/12/21 09:25:52;;;;;;;14.07;1.75;;;;;;;13.59;81.25;99879.94;5012713;28;20038;-46
2023/12/21 09:28:17;;;;;;;15.25;1.90;;;;;;;13.76;80.51;99899.75;5012596;28;20038;-45
2023/12/21 09:30:43;;;;;;;13.55;1.60;;;;;;;13.65;80.89;99906.91;5012911;28;20493;-48
2023/12/21 09:33:08;;;;;;;16.13;1.92;;;;;;;13.48;81.05;99911.50;5012228;28;20088;-45
2023/12/21 09:35:33;;;;;;;15.75;1.77;;;;;;;13.81;80.10;99918.88;5013359;28;20542;-48
2023/12/21 09:37:59;;;;;;;12.68;1.92;;;;;;;13.59;79.36;99907.00;5016161;28;20129;-46
2023/12/21 09:40:26;;;;;;;17.35;1.90;;;;;;;13.86;78.62;99910.94;5016011;28;20502;-44
2023/12/21 09:42:55;;;;;;;12.93;1.77;;;;;;;13.73;78.11;99918.13;5012689;28;20057;-49
2023/12/21 09:45:21;;;;;;;13.88;1.77;;;;;;;13.92;78.06;99907.34;5011804;28;20044;-44
2023/12/21 09:47:48;;;;;;;9.35;1.70;;;;;;;13.99;77.42;99906.38;5011630;28;20114;-45
2023/12/21 09:50:16;;;;;;;13.77;1.80;;;;;;;13.67;77.90;99888.53;5011106;28;20133;-46
2023/12/21 09:52:43;;;;;;;12.65;1.67;;;;;;;14.01;77.08;99896.75;5011550;28;20026;-45
2023/12/21 09:55:10;;;;;;;10.90;1.67;;;;;;;13.98;76.97;99921.22;5010943;28;20060;-43
2023/12/21 09:57:39;;;;;;;13.80;1.70;;;;;;;13.70;78.14;99920.78;5011147;28;20534;-47
2023/12/21 10:00:05;;;;;;;12.50;1.80;;;;;;;14.60;75.13;99914.09;5008780;28;20255;-47
2023/12/21 10:02:31;;;;;;;9.15;1.60;;;;;;;14.25;75.85;99938.28;5010794;28;20489;-46
2023/12/21 10:04:57;;;;;;;10.93;1.85;;;;;;;14.01;76.68;99915.97;5011251;28;20060;-45
2023/12/21 10:07:23;;;;;;;15.60;2.40;;;;;;;14.00;77.18;99905.50;5012465;28;20030;-45
2023/12/21 10:09:48;;;;;;;15.85;1.92;;;;;;;13.99;76.72;99922.97;5012731;28;20037;-47
2023/12/21 10:12:14;;;;;;;17.08;2.22;;;;;;;14.52;75.03;99918.59;5012397;28;20057;-49
2023/12/21 10:14:39;;;;;;;14.10;1.92;;;;;;;13.80;78.04;99909.28;5011376;28;20815;-44
2023/12/21 10:17:09;;;;;;;14.05;2.20;;;;;;;13.87;77.65;99894.34;5010494;28;20034;-44
2023/12/21 10:19:35;;;;;;;16.92;2.40;;;;;;;13.68;78.92;99905.97;5011085;28;20500;-43
2023/12/21 10:22:01;;;;;;;16.95;2.58;;;;;;;14.24;77.23;99915.56;5010213;28;20045;-45
2023/12/21 10:24:27;;;;;;;15.23;2.28;;;;;;;14.18;78.13;99898.19;5010812;28;20033;-52
2023/12/21 10:26:52;;;;;;;8.25;1.50;;;;;;;13.53;80.15;99927.16;5010557;28;20074;-48
2023/12/21 10:29:18;;;;;;;14.40;2.45;;;;;;;13.72;80.55;99894.59;5009954;28;20266;-46
2023/12/21 10:31:45;;;;;;;13.88;2.10;;;;;;;13.93;79.42;99883.75;5010160;28;20030;-48
2023/12/21 10:34:12;;;;;;;20.40;2.78;;;;;;;13.64;79.48;99888.59;5009773;28;20559;-45
2023/12/21 10:36:42;;;;;;;15.50;2.05;;;;;;;13.85;79.60;99897.84;5010130;28;20036;-52
2023/12/21 10:39:08;;;;;;;14.38;2.10;;;;;;;13.90;79.14;99880.34;5009585;28;20042;-44
2023/12/21 10:41:33;;;;;;;16.60;2.30;;;;;;;13.67;79.97;99907.72;5008355;28;20033;-50
2023/12/21 10:43:59;;;;;;;15.68;2.50;;;;;;;14.27;78.58;99870.09;5009626;28;20475;-45
2023/12/21 10:46:30;;;;;;;9.70;1.70;;;;;;;13.80;81.12;99882.22;5010434;28;20069;-47
2023/12/21 10:48:59;;;;;;;11.10;2.03;;;;;;;13.67;79.85;99896.38;5010745;28;20416;-46
2023/12/21 10:51:28;;;;;;;12.27;2.30;;;;;;;13.78;80.54;99879.59;5010626;28;20121;-48
2023/12/21 10:53:56;;;;;;;11.70;2.03;;;;;;;13.91;79.95;99890.75;5009681;28;20044;-51
2023/12/21 10:56:23;;;;;;;13.10;2.22;;;;;;;14.02;78.59;99903.72;5010305;28;20436;-44
2023/12/21 10:58:50;;;;;;;16.52;2.30;;;;;;;13.85;79.94;99895.22;5010228;28;20484;-51
2023/12/21 11:01:17;;;;;;;18.70;2.70;;;;;;;13.79;79.90;99897.06;5009901;28;20501;-46
2023/12/21 11:03:44;;;;;;;17.10;2.13;;;;;;;13.92;79.54;99875.91;5010053;28;20109;-46
2023/12/21 11:06:10;;;;;;;16.02;2.60;;;;;;;13.73;80.09;99881.44;5009234;28;20476;-45
2023/12/21 11:08:37;;;;;;;12.70;2.00;;;;;;;13.90;79.71;99859.38;5008514;28;20025;-48
2023/12/21 11:11:03;;;;;;;12.73;2.10;;;;;;;14.00;79.32;99859.19;5012397;28;20037;-46
2023/12/21 11:13:28;;;;;;;17.35;2.15;;;;;;;14.27;78.86;99864.84;5014166;28;20034;-51